• Join FlightAware (Why Join?)
  • Login
  • US Flag 
01:43PM EST


 

Airport Tracker/Info


-or-


 

Live Flight TrackerFlight Track Log ✈ CSN6811 ✈ 01-Apr-2014 ✈ ZWWW / URC - ZWSH / KHG

Flight Track Log - Related Links

Times and Time Zones

All times are in EDT time to prevent confusion due to time zone crossing. See the CSN6811 flight status page for this flight to view local times or setup timezone preferences in your user account.

Time Position Orientation Groundspeed Altitude Reporting Facility
EDT Latitude Longitude Course Direction KTS MPH feet Rate Location/Type
08:17PM 43.6640 86.6965 247° West  Level Estimated
08:18PM 43.6230 86.5675 246° West  Level Estimated
08:19PM 43.5818 86.4387 246° West  Level Estimated
08:20PM 43.5405 86.3100 246° West  Level Estimated
08:21PM 43.4991 86.1815 246° West  Level Estimated
08:22PM 43.4575 86.0532 246° West  Level Estimated
08:23PM 43.4157 85.9251 246° West  Level Estimated
08:24PM 43.3738 85.7971 246° West  Level Estimated
08:25PM 43.3318 85.6694 246° West  Level Estimated
08:26PM 43.2868 85.5331 246° West  Level Estimated
08:27PM 43.2415 85.3970 246° West  Level Estimated
08:28PM 43.1962 85.2611 245° Southwest  Level Estimated
08:29PM 43.1506 85.1254 245° Southwest  Level Estimated
08:30PM 43.1049 84.9900 245° Southwest  Level Estimated
08:31PM 43.0591 84.8547 245° Southwest  Level Estimated
08:32PM 43.0131 84.7196 245° Southwest  Level Estimated
08:33PM 42.9669 84.5847 245° Southwest  Level Estimated
08:34PM 42.9206 84.4501 245° Southwest  Level Estimated
08:35PM 42.8741 84.3156 245° Southwest  Level Estimated
08:36PM 42.8274 84.1813 245° Southwest  Level Estimated
08:37PM 42.7806 84.0473 245° Southwest  Level Estimated
08:38PM 42.7337 83.9134 245° Southwest  Level Estimated
08:39PM 42.6866 83.7798 244° Southwest  Level Estimated
08:40PM 42.6393 83.6463 244° Southwest  Level Estimated
08:41PM 42.5919 83.5130 244° Southwest  Level Estimated
08:42PM 42.5443 83.3800 244° Southwest  Level Estimated
08:43PM 42.4966 83.2472 244° Southwest  Level Estimated
08:44PM 42.4487 83.1145 244° Southwest  Level Estimated
08:45PM 42.4006 82.9821 244° Southwest  Level Estimated
08:46PM 42.3524 82.8499 244° Southwest  Level Estimated
08:47PM 42.3041 82.7178 244° Southwest  Level Estimated
08:48PM 42.2556 82.5860 244° Southwest  Level Estimated
08:49PM 42.2070 82.4544 244° Southwest  Level Estimated
08:50PM 42.1582 82.3229 243° Southwest  Level Estimated
08:51PM 42.1092 82.1917 243° Southwest  Level Estimated
08:52PM 42.0601 82.0607 243° Southwest  Level Estimated
08:53PM 42.0109 81.9299 243° Southwest  Level Estimated
08:54PM 41.9615 81.7993 243° Southwest  Level Estimated
08:55PM 41.9120 81.6689 243° Southwest  Level Estimated
08:56PM 41.8623 81.5387 243° Southwest  Level Estimated
08:57PM 41.8124 81.4087 243° Southwest  Level Estimated
08:58PM 41.7625 81.2789 243° Southwest  Level Estimated
08:59PM 41.7123 81.1493 243° Southwest  Level Estimated
09:00PM 41.6621 81.0199 243° Southwest  Level Estimated
09:01PM 41.6117 80.8907 242° Southwest  Level Estimated
09:02PM 41.5611 80.7617 242° Southwest  Level Estimated
09:03PM 41.5104 80.6329 242° Southwest  Level Estimated
09:04PM 41.4595 80.5043 242° Southwest  Level Estimated
09:05PM 41.4086 80.3759 242° Southwest  Level Estimated
09:06PM 41.3574 80.2477 242° Southwest  Level Estimated
09:07PM 41.3062 80.1197 242° Southwest  Level Estimated
09:08PM 41.2547 79.9920 242° Southwest  Level Estimated
09:09PM 41.2032 79.8644 242° Southwest  Level Estimated
09:10PM 41.1515 79.7370 242° Southwest  Level Estimated
09:11PM 41.0997 79.6098 242° Southwest  Level Estimated
09:12PM 41.0477 79.4828 242° Southwest  Level Estimated
09:13PM 40.9956 79.3560 241° Southwest  Level Estimated
09:14PM 40.9433 79.2295 241° Southwest  Level Estimated
09:15PM 40.8909 79.1031 241° Southwest  Level Estimated
09:16PM 40.8384 78.9769 241° Southwest  Level Estimated
09:17PM 40.7857 78.8509 241° Southwest  Level Estimated
09:18PM 40.7329 78.7252 241° Southwest  Level Estimated
09:19PM 40.6800 78.5996 241° Southwest  Level Estimated
09:20PM 40.6269 78.4742 241° Southwest  Level Estimated
09:21PM 40.5737 78.3490 241° Southwest  Level Estimated
09:22PM 40.5203 78.2241 241° Southwest  Level Estimated
09:23PM 40.4669 78.0993 241° Southwest  Level Estimated
09:24PM 40.4132 77.9747 241° Southwest  Level Estimated
09:25PM 40.3595 77.8503 240° Southwest  Level Estimated
09:26PM 40.3056 77.7261 240° Southwest  Level Estimated
09:27PM 40.2516 77.6021 240° Southwest  Level Estimated
09:28PM 40.1975 77.4784 240° Southwest  Level Estimated
09:29PM 40.1432 77.3548 240° Southwest  Level Estimated
09:30PM 40.0888 77.2314 240° Southwest  Level Estimated
09:31PM 40.0342 77.1082 240° Southwest  Level Estimated
09:32PM 39.9796 76.9852 240° Southwest  Level Estimated
09:33PM 39.9248 76.8624 240° Southwest  Level Estimated
09:34PM 39.8698 76.7398 240° Southwest  Level Estimated
09:35PM 39.8148 76.6174 240° Southwest  Level Estimated
09:36PM 39.7596 76.4952 240° Southwest  Level Estimated
09:37PM 39.7043 76.3731 240° Southwest  Level Estimated
09:38PM 39.6488 76.2513 239° Southwest  Level Estimated
09:39PM 39.5933 76.1297 239° Southwest  Level Estimated
09:40PM 39.5432 76.0206 239° Southwest  Level Estimated
09:41PM 39.5432 76.0206 North  Level Estimated
09:42PM 39.5432 76.0206 North  Level Estimated
09:43PM 39.5432 76.0206 North  Level Estimated
09:44PM 39.5432 76.0206 North  Level Estimated
09:45PM 39.5432 76.0206 North  Level Estimated
09:46PM 39.5432 76.0206 North  Level Estimated
09:47PM 39.5432 76.0206 North  Level Estimated
09:48PM 39.5432 76.0206 North  Level Estimated
09:49PM 39.5432 76.0206 North  Level Estimated
09:50PM 39.5432 76.0206 North  Level Estimated
09:51PM 39.5432 76.0206 North  Level Estimated
09:52PM 39.5432 76.0206 North  Level Estimated
09:53PM 39.5432 76.0206 North  Level Estimated